Terminal Aerodrome Forecast
Issued by NWS

Current Version | Previous Version | Text Only | Print | Product List | Glossary On
Versions: 1 2 3 4 5 6 7 8 9 10 11 12 13 14 15 16 17 18
871
FTUS46 KMTR 282334
TAFSJC
TAF
KSJC 282334Z 2900/2924 31013KT P6SM SCT200
     FM290500 30008KT P6SM FEW015 SCT200
     FM290700 VRB03KT P6SM FEW015 SCT200
      TEMPO 2914/2916 BKN015
     FM292000 30012KT P6SM SCT200=

USA.gov is the U.S. government's official web portal to all federal, state and local government web resources and services.